createdAt,value
2023-01-31T00:01:37.574Z,9.40
2023-01-31T00:04:07.308Z,9.63
2023-01-31T00:06:38.793Z,6.90
2023-01-31T00:09:07.654Z,15.45
2023-01-31T00:11:35.132Z,6.50
2023-01-31T00:14:03.157Z,6.72
2023-01-31T00:16:30.046Z,6.10
2023-01-31T00:18:56.924Z,5.75
2023-01-31T00:21:27.253Z,12.70
2023-01-31T00:23:55.167Z,8.80
2023-01-31T00:26:24.926Z,5.22
2023-01-31T00:28:54.065Z,5.33
2023-01-31T00:31:23.153Z,6.07
2023-01-31T00:33:52.068Z,6.03
2023-01-31T00:36:21.962Z,5.33
2023-01-31T00:38:50.867Z,5.60
2023-01-31T00:41:18.974Z,5.55
2023-01-31T00:43:45.908Z,6.03
2023-01-31T00:46:12.873Z,5.45
2023-01-31T00:48:40.161Z,5.40
2023-01-31T00:51:07.224Z,5.83
2023-01-31T00:53:35.058Z,5.13
2023-01-31T00:56:14.862Z,5.30
2023-01-31T00:58:42.101Z,5.70
2023-01-31T01:01:11.803Z,5.03
2023-01-31T01:03:39.962Z,5.40
2023-01-31T01:06:08.146Z,5.60
2023-01-31T01:08:36.733Z,5.70
2023-01-31T01:11:12.789Z,5.35
2023-01-31T01:13:40.358Z,5.32
2023-01-31T01:16:13.705Z,5.30
2023-01-31T01:18:40.850Z,4.97
2023-01-31T01:21:12.352Z,4.93
2023-01-31T01:23:40.627Z,5.32
2023-01-31T01:26:26.753Z,4.82
2023-01-31T01:28:55.526Z,5.40
2023-01-31T01:31:22.967Z,4.82
2023-01-31T01:33:50.062Z,5.13
2023-01-31T01:36:22.288Z,4.63
2023-01-31T01:38:49.759Z,5.43
2023-01-31T01:41:17.122Z,5.13
2023-01-31T01:43:43.875Z,5.10
2023-01-31T01:46:15.687Z,5.10
2023-01-31T01:48:45.173Z,5.03
2023-01-31T01:51:16.092Z,5.35
2023-01-31T01:53:46.615Z,5.13
2023-01-31T01:56:21.907Z,4.88
2023-01-31T01:58:55.900Z,4.95
2023-01-31T02:01:24.902Z,4.85
2023-01-31T02:03:53.157Z,4.78
2023-01-31T02:06:21.050Z,5.15
2023-01-31T02:08:48.130Z,5.32
2023-01-31T02:11:30.791Z,5.10
2023-01-31T02:14:05.184Z,5.03
2023-01-31T02:16:32.073Z,5.40
2023-01-31T02:18:59.947Z,5.35
2023-01-31T02:22:08.812Z,6.05
2023-01-31T02:25:19.859Z,4.90
2023-01-31T02:28:00.824Z,5.50
2023-01-31T02:31:05.364Z,5.22
2023-01-31T02:33:53.017Z,4.97
2023-01-31T02:37:09.053Z,4.72
2023-01-31T02:39:53.321Z,5.00
2023-01-31T02:42:37.818Z,5.38
2023-01-31T02:45:19.986Z,5.18
2023-01-31T02:48:08.130Z,5.15
2023-01-31T02:51:10.114Z,5.93
2023-01-31T02:53:45.605Z,5.27
2023-01-31T02:56:30.761Z,5.35
2023-01-31T02:59:08.727Z,5.13
2023-01-31T03:01:43.657Z,5.50
2023-01-31T03:04:12.809Z,5.80
2023-01-31T03:07:00.116Z,5.75
2023-01-31T03:09:36.715Z,5.28
2023-01-31T03:12:19.499Z,5.07
2023-01-31T03:15:06.344Z,5.05
2023-01-31T03:17:45.190Z,5.60
2023-01-31T03:20:24.112Z,4.93
2023-01-31T03:23:01.678Z,5.00
2023-01-31T03:25:34.472Z,5.00
2023-01-31T03:28:06.382Z,5.17
2023-01-31T03:30:43.243Z,5.25
2023-01-31T03:33:22.970Z,5.20
2023-01-31T03:36:08.630Z,5.03
2023-01-31T03:38:43.249Z,5.63
2023-01-31T03:41:34.442Z,5.32
2023-01-31T03:44:29.247Z,5.20
2023-01-31T03:47:02.047Z,5.13
2023-01-31T03:49:31.307Z,5.70
2023-01-31T03:52:05.754Z,4.97
2023-01-31T03:54:39.324Z,4.82
2023-01-31T03:57:21.179Z,4.67
2023-01-31T03:59:55.712Z,3.90
2023-01-31T04:02:28.943Z,4.67
2023-01-31T04:05:18.962Z,4.10
2023-01-31T04:07:46.231Z,4.50
2023-01-31T04:10:19.100Z,3.93
2023-01-31T04:12:46.666Z,4.50
2023-01-31T04:15:14.268Z,3.90
2023-01-31T04:17:41.248Z,4.40
2023-01-31T04:35:32.042Z,5.17
2023-01-31T04:38:01.485Z,4.27
2023-01-31T04:40:28.439Z,4.60
2023-01-31T04:42:55.378Z,5.07
2023-01-31T04:45:22.525Z,4.93
2023-01-31T04:47:50.893Z,4.53
2023-01-31T04:50:17.842Z,4.53
2023-01-31T04:52:44.835Z,3.93
2023-01-31T04:55:15.074Z,4.70
2023-01-31T04:57:44.397Z,4.90
2023-01-31T05:00:14.356Z,5.83
2023-01-31T05:02:41.367Z,5.23
2023-01-31T05:05:12.883Z,5.30
2023-01-31T05:07:40.261Z,4.97
2023-01-31T05:10:11.825Z,4.90
2023-01-31T05:12:39.089Z,5.57
2023-01-31T05:15:11.658Z,5.17
2023-01-31T05:17:39.123Z,6.40
2023-01-31T05:20:12.944Z,5.60
2023-01-31T05:22:39.847Z,6.00
2023-01-31T05:25:46.196Z,5.97
2023-01-31T05:28:15.878Z,5.93
2023-01-31T05:30:42.898Z,4.87
2023-01-31T05:33:12.018Z,6.03
2023-01-31T05:35:39.602Z,6.50
2023-01-31T05:38:06.926Z,6.27
2023-01-31T05:40:33.906Z,5.73
2023-01-31T05:43:04.016Z,7.13
2023-01-31T05:45:31.415Z,6.53
2023-01-31T05:48:01.236Z,7.27
2023-01-31T05:50:31.122Z,7.17
2023-01-31T05:53:09.413Z,6.87
2023-01-31T05:56:01.535Z,6.80
2023-01-31T05:58:42.213Z,6.60
2023-01-31T06:01:09.640Z,7.13
2023-01-31T06:03:56.626Z,7.00
2023-01-31T06:06:26.132Z,7.50
2023-01-31T06:08:55.279Z,7.73
2023-01-31T06:11:25.544Z,8.40
2023-01-31T06:13:52.714Z,7.30
2023-01-31T06:16:22.442Z,4.80
2023-01-31T06:18:49.402Z,7.13
2023-01-31T06:21:20.636Z,8.17
2023-01-31T06:23:48.094Z,7.97
2023-01-31T06:26:17.600Z,7.80
2023-01-31T06:28:46.227Z,7.53
2023-01-31T06:31:14.005Z,7.47
2023-01-31T06:33:47.355Z,8.57
2023-01-31T06:36:18.866Z,8.10
2023-01-31T06:38:54.156Z,9.50
2023-01-31T06:41:21.296Z,8.23
2023-01-31T06:43:48.732Z,8.97
2023-01-31T06:46:18.187Z,9.17
2023-01-31T06:48:45.232Z,8.47
2023-01-31T06:51:12.126Z,9.10
2023-01-31T06:53:39.066Z,8.83
2023-01-31T06:56:06.698Z,8.60
2023-01-31T06:58:33.873Z,9.73
2023-01-31T07:01:12.424Z,9.73
2023-01-31T07:03:44.187Z,8.90
2023-01-31T07:06:13.823Z,10.33
2023-01-31T07:08:40.840Z,10.17
2023-01-31T07:11:07.830Z,10.33
2023-01-31T07:13:37.547Z,9.93
2023-01-31T07:16:06.323Z,9.97
2023-01-31T07:18:33.214Z,10.90
2023-01-31T07:21:01.132Z,9.50
2023-01-31T07:23:31.059Z,11.80
2023-01-31T07:26:06.556Z,11.33
2023-01-31T07:28:33.468Z,12.67
2023-01-31T07:31:14.585Z,11.70
2023-01-31T07:33:42.030Z,11.53
2023-01-31T07:36:15.240Z,11.57
2023-01-31T07:38:42.774Z,8.83
2023-01-31T07:41:11.474Z,11.30
2023-01-31T07:43:40.679Z,12.50
2023-01-31T07:46:11.592Z,10.27
2023-01-31T07:48:39.131Z,10.90
2023-01-31T07:51:07.474Z,10.73
2023-01-31T07:53:47.798Z,12.20
2023-01-31T07:56:19.025Z,11.80
2023-01-31T07:58:47.475Z,12.77
2023-01-31T08:01:41.634Z,9.97
2023-01-31T08:04:23.403Z,14.07
2023-01-31T08:07:03.124Z,14.82
2023-01-31T08:09:30.970Z,12.10
2023-01-31T08:11:57.919Z,11.17
2023-01-31T08:14:25.782Z,11.90
2023-01-31T08:16:53.681Z,11.43
2023-01-31T08:19:24.493Z,10.60
2023-01-31T08:21:54.032Z,11.97
2023-01-31T08:24:20.913Z,11.80
2023-01-31T08:26:52.143Z,9.23
2023-01-31T08:29:21.955Z,10.77
2023-01-31T08:31:51.083Z,10.97
2023-01-31T08:34:23.281Z,10.60
2023-01-31T08:36:50.261Z,10.03
2023-01-31T08:39:17.303Z,9.83
2023-01-31T08:41:47.996Z,10.27
2023-01-31T08:44:17.029Z,11.13
2023-01-31T08:46:46.873Z,11.30
2023-01-31T08:49:16.627Z,10.97
2023-01-31T08:51:46.376Z,12.03
2023-01-31T08:54:15.352Z,10.83
2023-01-31T08:56:42.253Z,12.17
2023-01-31T08:59:10.929Z,10.10
2023-01-31T09:01:40.674Z,10.73
2023-01-31T09:04:09.004Z,10.47
2023-01-31T09:06:35.919Z,11.10
2023-01-31T09:09:05.119Z,11.30
2023-01-31T09:11:32.265Z,11.70
2023-01-31T09:13:59.223Z,12.03
2023-01-31T09:16:26.362Z,10.77
2023-01-31T09:18:54.138Z,12.13
2023-01-31T09:21:22.163Z,10.33
2023-01-31T09:23:49.575Z,11.53
2023-01-31T09:26:17.053Z,9.73
2023-01-31T09:28:46.451Z,7.90
2023-01-31T09:31:22.165Z,11.70
2023-01-31T09:33:49.170Z,11.30
2023-01-31T09:36:18.856Z,11.17
2023-01-31T09:38:46.286Z,10.60
2023-01-31T09:41:17.348Z,11.40
2023-01-31T09:43:52.065Z,10.73
2023-01-31T09:46:28.538Z,10.87
2023-01-31T09:49:06.166Z,9.70
2023-01-31T09:51:35.138Z,11.27
2023-01-31T09:54:03.426Z,8.67
2023-01-31T09:56:50.765Z,10.87
2023-01-31T09:59:35.144Z,9.23
2023-01-31T10:02:31.921Z,10.83
2023-01-31T10:05:30.717Z,10.03
2023-01-31T10:08:03.699Z,10.93
2023-01-31T10:10:58.095Z,11.03
2023-01-31T10:13:39.288Z,9.03
2023-01-31T10:16:46.774Z,8.63
2023-01-31T10:19:26.835Z,11.60
2023-01-31T10:22:01.984Z,11.90
2023-01-31T10:24:41.454Z,12.63
2023-01-31T10:27:45.211Z,9.07
2023-01-31T10:30:23.346Z,11.63
2023-01-31T10:33:01.938Z,10.43
2023-01-31T10:35:34.715Z,12.10
2023-01-31T10:38:18.874Z,11.23
2023-01-31T10:40:52.545Z,9.47
2023-01-31T10:43:32.952Z,10.73
2023-01-31T10:46:00.870Z,8.97
2023-01-31T10:48:29.781Z,11.13
2023-01-31T10:51:30.583Z,9.47
2023-01-31T10:54:26.605Z,8.37
2023-01-31T10:56:56.579Z,7.13
2023-01-31T10:59:34.879Z,9.27
2023-01-31T11:02:14.860Z,10.07
2023-01-31T11:04:43.212Z,10.03
2023-01-31T11:07:12.725Z,10.47
2023-01-31T11:09:52.081Z,11.07
2023-01-31T11:43:21.428Z,10.77
2023-01-31T11:46:05.044Z,8.77
2023-01-31T11:48:41.219Z,8.60
2023-01-31T11:51:09.626Z,9.27
2023-01-31T11:53:49.478Z,11.20
2023-01-31T11:56:24.113Z,10.07
2023-01-31T11:58:55.347Z,11.50
2023-01-31T12:01:31.155Z,10.50
2023-01-31T12:04:05.646Z,10.17
2023-01-31T12:06:37.875Z,10.57
2023-01-31T12:09:18.310Z,9.87
2023-01-31T12:12:08.202Z,10.80
2023-01-31T12:14:52.387Z,10.87
2023-01-31T12:17:27.229Z,9.80
2023-01-31T12:20:28.958Z,13.77
2023-01-31T12:23:34.189Z,13.50
2023-01-31T12:26:20.059Z,13.13
2023-01-31T12:29:12.516Z,14.55
2023-01-31T12:32:05.202Z,13.93
2023-01-31T12:35:01.646Z,14.90
2023-01-31T12:37:32.739Z,13.65
2023-01-31T12:40:36.044Z,14.05
2023-01-31T12:43:59.654Z,14.47
2023-01-31T12:46:57.638Z,14.50
2023-01-31T12:49:59.508Z,14.80
2023-01-31T12:52:38.191Z,14.23
2023-01-31T12:55:26.581Z,13.50
2023-01-31T12:58:11.212Z,15.40
2023-01-31T13:04:16.691Z,14.10
2023-01-31T13:06:52.621Z,13.43
2023-01-31T13:09:38.473Z,14.18
2023-01-31T13:12:13.497Z,13.73
2023-01-31T13:14:48.274Z,13.13
2023-01-31T13:17:26.165Z,13.75
2023-01-31T13:20:00.041Z,13.10
2023-01-31T13:22:49.035Z,12.90
2023-01-31T13:25:18.474Z,12.77
2023-01-31T13:28:04.996Z,13.07
2023-01-31T13:30:50.515Z,12.20
2023-01-31T13:33:22.633Z,12.70
2023-01-31T13:36:05.245Z,12.73
2023-01-31T13:38:42.101Z,12.90
2023-01-31T13:41:49.518Z,12.60
2023-01-31T13:44:17.510Z,12.63
2023-01-31T13:46:53.052Z,12.80
2023-01-31T13:49:37.671Z,11.80
2023-01-31T13:52:41.986Z,12.80
2023-01-31T13:55:19.616Z,12.80
2023-01-31T13:58:03.303Z,11.93
2023-01-31T14:00:39.324Z,11.82
2023-01-31T14:03:10.245Z,11.30
2023-01-31T14:05:43.253Z,11.38
2023-01-31T14:08:59.816Z,11.82
2023-01-31T14:11:29.703Z,11.80
2023-01-31T14:14:37.764Z,10.45
2023-01-31T14:17:20.996Z,9.20
2023-01-31T14:19:50.071Z,10.10
2023-01-31T14:22:20.543Z,9.47
2023-01-31T14:24:50.755Z,9.88
2023-01-31T14:27:25.066Z,9.57
2023-01-31T14:30:17.920Z,8.95
2023-01-31T14:33:03.219Z,8.50
2023-01-31T14:35:54.852Z,10.07
2023-01-31T14:39:01.171Z,8.68
2023-01-31T14:42:06.909Z,8.43
2023-01-31T14:45:06.999Z,8.73
2023-01-31T14:47:46.087Z,7.65
2023-01-31T14:50:37.141Z,7.10
2023-01-31T14:53:27.291Z,6.70
2023-01-31T14:56:24.375Z,6.20
2023-01-31T14:58:51.515Z,6.40
2023-01-31T15:01:24.514Z,6.43
2023-01-31T15:03:55.488Z,6.80
2023-01-31T15:06:27.116Z,9.40
2023-01-31T15:09:36.013Z,7.80
2023-01-31T15:12:07.833Z,6.53
2023-01-31T15:14:45.619Z,6.70
2023-01-31T15:17:34.638Z,6.45
2023-01-31T15:20:24.232Z,6.18
2023-01-31T15:22:57.179Z,5.90
2023-01-31T15:25:36.002Z,6.43
2023-01-31T15:28:04.059Z,6.38
2023-01-31T15:30:35.319Z,6.63
2023-01-31T15:33:37.107Z,5.68
2023-01-31T15:36:14.264Z,6.15
2023-01-31T15:38:57.966Z,6.72
2023-01-31T15:41:41.862Z,6.50
2023-01-31T15:44:17.996Z,6.60
2023-01-31T15:46:48.792Z,6.03
2023-01-31T15:49:49.092Z,6.10
2023-01-31T15:52:21.932Z,5.63
2023-01-31T15:54:58.353Z,6.60
2023-01-31T15:57:51.049Z,5.97
2023-01-31T16:00:42.712Z,5.82
2023-01-31T16:03:21.544Z,5.32
2023-01-31T16:05:51.360Z,6.15
2023-01-31T16:08:29.562Z,6.72
2023-01-31T16:11:00.867Z,6.65
2023-01-31T16:13:28.435Z,6.72
2023-01-31T16:15:55.652Z,7.57
2023-01-31T16:18:23.189Z,5.63
2023-01-31T16:20:58.561Z,4.97
2023-01-31T16:23:37.095Z,5.45
2023-01-31T16:26:17.704Z,5.15
2023-01-31T16:28:51.198Z,5.10
2023-01-31T16:31:24.000Z,5.57
2023-01-31T16:33:57.018Z,8.05
2023-01-31T16:36:33.204Z,3.80
2023-01-31T16:39:47.014Z,4.60
2023-01-31T16:42:25.460Z,4.75
2023-01-31T16:44:55.129Z,7.30
2023-01-31T16:47:41.760Z,4.68
2023-01-31T16:50:22.625Z,4.60
2023-01-31T16:53:11.740Z,4.20
2023-01-31T16:55:50.159Z,4.28
2023-01-31T16:58:55.695Z,4.60
2023-01-31T17:01:31.861Z,4.95
2023-01-31T17:04:28.183Z,4.40
2023-01-31T17:07:09.161Z,4.30
2023-01-31T17:09:38.605Z,5.05
2023-01-31T17:12:30.719Z,5.00
2023-01-31T17:15:08.723Z,4.55
2023-01-31T17:17:44.314Z,5.03
2023-01-31T17:20:15.726Z,4.10
2023-01-31T17:22:45.661Z,4.45
2023-01-31T17:25:28.018Z,5.60
2023-01-31T17:27:55.278Z,5.67
2023-01-31T17:30:24.742Z,4.93
2023-01-31T17:33:07.108Z,6.07
2023-01-31T17:35:58.900Z,4.63
2023-01-31T17:38:44.310Z,4.78
2023-01-31T17:41:31.486Z,5.25
2023-01-31T17:44:02.559Z,4.80
2023-01-31T17:46:32.477Z,4.28
2023-01-31T17:49:01.996Z,4.05
2023-01-31T17:51:31.306Z,5.00
2023-01-31T17:54:00.532Z,4.47
2023-01-31T17:56:27.586Z,4.85
2023-01-31T17:58:55.228Z,6.63
2023-01-31T18:01:23.291Z,8.38
2023-01-31T18:03:54.411Z,4.45
2023-01-31T18:06:35.137Z,4.43
2023-01-31T18:09:06.957Z,4.93
2023-01-31T18:11:36.291Z,4.63
2023-01-31T18:14:04.070Z,5.13
2023-01-31T18:16:33.328Z,4.97
2023-01-31T18:19:01.470Z,4.97
2023-01-31T18:21:28.311Z,4.40
2023-01-31T18:23:56.982Z,4.95
2023-01-31T18:26:24.593Z,6.10
2023-01-31T18:28:57.766Z,4.85
2023-01-31T18:31:25.158Z,5.07
2023-01-31T18:33:55.010Z,10.68
2023-01-31T18:36:28.273Z,5.50
2023-01-31T18:38:55.390Z,5.03
2023-01-31T18:41:23.835Z,4.78
2023-01-31T18:43:50.821Z,14.87
2023-01-31T18:46:30.537Z,10.73
2023-01-31T18:48:57.802Z,5.97
2023-01-31T18:51:33.865Z,4.80
2023-01-31T18:54:04.521Z,7.37
2023-01-31T18:56:31.641Z,5.28
2023-01-31T18:58:59.000Z,5.68
2023-01-31T19:01:29.197Z,17.75
2023-01-31T19:03:58.685Z,9.23
2023-01-31T19:06:37.170Z,6.93
2023-01-31T19:09:07.245Z,9.82
2023-01-31T19:11:43.681Z,15.48
2023-01-31T19:14:15.282Z,6.70
2023-01-31T19:16:45.838Z,7.03
2023-01-31T19:19:15.271Z,5.55
2023-01-31T19:21:48.004Z,5.47
2023-01-31T19:24:18.507Z,5.38
2023-01-31T19:26:56.809Z,5.13
2023-01-31T19:29:33.172Z,6.00
2023-01-31T19:32:00.444Z,5.32
2023-01-31T19:34:38.595Z,5.47
2023-01-31T19:37:05.875Z,5.05
2023-01-31T19:39:38.160Z,5.07
2023-01-31T19:42:08.905Z,5.75
2023-01-31T19:44:38.604Z,5.72
2023-01-31T19:47:05.707Z,5.43
2023-01-31T19:49:33.465Z,5.43
2023-01-31T19:52:00.561Z,5.65
2023-01-31T19:54:28.126Z,6.10
2023-01-31T19:56:55.234Z,6.60
2023-01-31T19:59:37.715Z,5.38
2023-01-31T20:02:12.951Z,5.40
2023-01-31T20:04:45.704Z,5.63
2023-01-31T20:07:14.495Z,5.50
2023-01-31T20:09:46.325Z,5.35
2023-01-31T20:12:13.356Z,5.90
2023-01-31T20:14:40.280Z,6.35
2023-01-31T20:17:07.276Z,5.88
2023-01-31T20:19:34.248Z,8.23
2023-01-31T20:22:01.266Z,8.07
2023-01-31T20:24:28.504Z,6.25
2023-01-31T20:35:02.327Z,6.55
2023-01-31T20:37:29.270Z,5.97
2023-01-31T20:39:56.117Z,6.30
2023-01-31T20:42:25.648Z,6.22
2023-01-31T20:44:52.554Z,6.07
2023-01-31T20:47:19.386Z,5.72
2023-01-31T20:49:46.170Z,6.05
2023-01-31T20:52:13.562Z,6.30
2023-01-31T20:54:40.404Z,6.27
2023-01-31T20:57:07.229Z,5.85
2023-01-31T20:59:34.073Z,5.82
2023-01-31T21:02:00.933Z,5.22
2023-01-31T21:04:27.782Z,5.47
2023-01-31T21:06:54.592Z,6.47
2023-01-31T21:09:23.164Z,6.70
2023-01-31T21:11:50.142Z,5.85
2023-01-31T21:14:17.033Z,5.63
2023-01-31T21:16:43.985Z,5.95
2023-01-31T21:19:10.941Z,6.55
2023-01-31T21:21:37.761Z,6.65
2023-01-31T21:24:04.984Z,5.80
2023-01-31T21:26:31.887Z,6.38
2023-01-31T21:29:03.845Z,6.10
2023-01-31T21:31:31.341Z,5.70
2023-01-31T21:34:00.531Z,6.95
2023-01-31T21:36:27.457Z,5.80
2023-01-31T21:38:54.308Z,6.28
2023-01-31T21:41:39.924Z,6.20
2023-01-31T21:44:07.171Z,6.35
2023-01-31T21:46:34.110Z,5.45
2023-01-31T21:49:01.401Z,5.82
2023-01-31T21:51:28.787Z,6.13
2023-01-31T21:53:55.846Z,6.05
2023-01-31T21:56:25.674Z,5.87
2023-01-31T21:58:56.451Z,6.72
2023-01-31T22:01:28.701Z,5.45
2023-01-31T22:03:56.464Z,6.25
2023-01-31T22:06:31.342Z,5.55
2023-01-31T22:09:00.068Z,5.90
2023-01-31T22:11:28.707Z,5.80
2023-01-31T22:13:56.236Z,6.18
2023-01-31T22:16:23.506Z,5.53
2023-01-31T22:18:50.704Z,5.47
2023-01-31T22:21:20.157Z,5.88
2023-01-31T22:23:49.572Z,5.85
2023-01-31T22:26:24.721Z,5.63
2023-01-31T22:28:53.658Z,5.85
2023-01-31T22:31:20.927Z,6.07
2023-01-31T22:36:24.144Z,5.53
2023-01-31T22:38:51.241Z,5.83
2023-01-31T22:41:20.038Z,5.93
2023-01-31T22:43:49.480Z,5.82
2023-01-31T22:46:19.341Z,6.45
2023-01-31T22:48:49.255Z,5.50
2023-01-31T22:51:21.353Z,5.85
2023-01-31T22:53:49.385Z,5.97
2023-01-31T22:56:21.697Z,5.40
2023-01-31T22:58:49.280Z,6.40
2023-01-31T23:01:22.206Z,5.65
2023-01-31T23:03:49.936Z,6.22
2023-01-31T23:06:17.932Z,6.03
2023-01-31T23:08:45.081Z,4.47
2023-01-31T23:11:15.981Z,5.88
2023-01-31T23:13:43.842Z,5.85
2023-01-31T23:16:19.413Z,6.13
2023-01-31T23:18:46.698Z,6.25
2023-01-31T23:21:15.147Z,5.85
2023-01-31T23:23:42.958Z,6.53
2023-01-31T23:26:10.443Z,5.70
2023-01-31T23:28:37.465Z,6.20
2023-01-31T23:31:04.523Z,6.20
2023-01-31T23:33:31.384Z,5.88
2023-01-31T23:35:58.260Z,5.82
2023-01-31T23:38:25.860Z,5.53
2023-01-31T23:40:53.988Z,5.50
2023-01-31T23:43:21.866Z,5.95
2023-01-31T23:45:49.128Z,6.03
2023-01-31T23:48:16.228Z,5.63
2023-01-31T23:50:43.850Z,5.70
2023-01-31T23:53:10.730Z,6.40
2023-01-31T23:55:37.574Z,5.65
2023-01-31T23:58:04.738Z,6.13
